createdAt,value
2022-10-09T00:02:31.513Z,5.80
2022-10-09T00:05:03.595Z,8.55
2022-10-09T00:07:36.183Z,5.43
2022-10-09T00:10:12.199Z,9.07
2022-10-09T00:12:43.633Z,8.60
2022-10-09T00:15:16.211Z,6.95
2022-10-09T00:17:48.221Z,4.53
2022-10-09T00:20:20.707Z,6.93
2022-10-09T00:22:52.821Z,7.45
2022-10-09T00:25:27.755Z,4.80
2022-10-09T00:28:01.883Z,6.75
2022-10-09T00:30:33.884Z,7.25
2022-10-09T00:33:05.908Z,7.65
2022-10-09T00:35:37.487Z,8.07
2022-10-09T00:38:11.387Z,5.45
2022-10-09T00:40:46.689Z,5.75
2022-10-09T00:43:20.989Z,5.13
2022-10-09T00:45:56.708Z,5.47
2022-10-09T00:48:29.107Z,8.57
2022-10-09T00:51:05.366Z,6.75
2022-10-09T00:53:37.045Z,7.95
2022-10-09T00:56:12.700Z,6.03
2022-10-09T00:58:44.463Z,10.30
2022-10-09T01:01:17.069Z,7.28
2022-10-09T01:03:49.722Z,4.47
2022-10-09T01:06:26.449Z,4.40
2022-10-09T01:09:05.353Z,7.00
2022-10-09T01:11:51.112Z,5.45
2022-10-09T01:14:30.123Z,7.97
2022-10-09T01:17:09.477Z,4.13
2022-10-09T01:19:58.299Z,6.05
2022-10-09T01:22:47.167Z,5.30
2022-10-09T01:25:24.236Z,5.32
2022-10-09T01:28:00.290Z,10.13
2022-10-09T01:30:33.333Z,6.90
2022-10-09T01:33:06.470Z,4.93
2022-10-09T01:35:39.260Z,7.00
2022-10-09T01:38:11.446Z,6.68
2022-10-09T01:40:43.893Z,4.93
2022-10-09T01:43:20.473Z,4.13
2022-10-09T01:45:53.355Z,9.80
2022-10-09T01:48:28.437Z,10.27
2022-10-09T01:51:05.129Z,7.22
2022-10-09T01:53:38.424Z,9.38
2022-10-09T01:56:16.697Z,5.65
2022-10-09T01:58:58.276Z,4.60
2022-10-09T02:01:34.227Z,5.00
2022-10-09T02:04:09.933Z,5.23
2022-10-09T02:06:43.473Z,5.13
2022-10-09T02:09:19.382Z,7.15
2022-10-09T02:11:56.847Z,5.53
2022-10-09T02:14:31.442Z,3.72
2022-10-09T02:17:09.206Z,4.63
2022-10-09T02:19:47.202Z,5.65
2022-10-09T02:22:23.027Z,5.45
2022-10-09T02:24:56.536Z,6.18
2022-10-09T02:27:31.304Z,5.85
2022-10-09T02:30:07.369Z,4.80
2022-10-09T02:32:39.371Z,7.60
2022-10-09T02:35:13.383Z,8.25
2022-10-09T02:37:45.298Z,6.10
2022-10-09T02:40:17.396Z,8.02
2022-10-09T02:42:50.100Z,4.38
2022-10-09T02:45:25.176Z,8.23
2022-10-09T02:47:57.376Z,4.95
2022-10-09T02:50:30.366Z,6.00
2022-10-09T02:53:02.198Z,4.22
2022-10-09T02:55:34.179Z,8.20
2022-10-09T02:58:07.530Z,2.95
2022-10-09T03:00:42.554Z,5.53
2022-10-09T03:03:14.092Z,6.15
2022-10-09T03:05:46.475Z,4.07
2022-10-09T03:08:23.117Z,6.65
2022-10-09T03:10:55.360Z,5.30
2022-10-09T03:13:28.041Z,3.42
2022-10-09T03:16:06.931Z,6.43
2022-10-09T03:18:41.714Z,7.25
2022-10-09T03:21:16.243Z,5.35
2022-10-09T03:23:48.242Z,7.25
2022-10-09T03:26:21.678Z,6.95
2022-10-09T03:28:55.369Z,5.65
2022-10-09T03:31:51.837Z,3.03
2022-10-09T03:34:23.086Z,3.58
2022-10-09T03:36:54.713Z,6.22
2022-10-09T03:39:26.973Z,3.60
2022-10-09T03:41:59.528Z,3.58
2022-10-09T03:44:31.288Z,4.65
2022-10-09T03:47:05.616Z,7.15
2022-10-09T03:49:37.620Z,4.63
2022-10-09T03:52:10.396Z,4.22
2022-10-09T03:54:42.024Z,5.72
2022-10-09T03:57:14.464Z,3.83
2022-10-09T03:59:46.218Z,6.43
2022-10-09T04:02:20.835Z,9.07
2022-10-09T04:04:53.746Z,7.43
2022-10-09T04:07:25.437Z,6.78
2022-10-09T04:09:57.974Z,4.43
2022-10-09T04:12:30.374Z,6.50
2022-10-09T04:15:02.228Z,6.97
2022-10-09T04:17:36.869Z,4.78
2022-10-09T04:20:10.373Z,4.82
2022-10-09T04:22:42.009Z,4.68
2022-10-09T04:25:14.542Z,6.32
2022-10-09T04:27:48.567Z,6.03
2022-10-09T04:30:20.450Z,5.95
2022-10-09T04:32:55.647Z,6.03
2022-10-09T04:35:28.382Z,6.72
2022-10-09T04:37:59.869Z,4.68
2022-10-09T04:40:31.953Z,6.05
2022-10-09T04:43:03.833Z,5.57
2022-10-09T04:45:35.584Z,8.27
2022-10-09T04:48:11.396Z,7.00
2022-10-09T04:50:43.440Z,4.78
2022-10-09T04:53:16.050Z,7.93
2022-10-09T04:55:49.298Z,4.55
2022-10-09T04:58:22.596Z,6.90
2022-10-09T05:00:55.237Z,5.63
2022-10-09T05:03:29.933Z,10.25
2022-10-09T05:06:05.409Z,7.75
2022-10-09T05:08:38.060Z,7.68
2022-10-09T05:11:13.808Z,7.50
2022-10-09T05:13:48.289Z,6.95
2022-10-09T05:16:21.818Z,3.25
2022-10-09T05:18:57.781Z,6.28
2022-10-09T05:21:29.591Z,5.70
2022-10-09T05:24:00.999Z,8.02
2022-10-09T05:26:32.340Z,4.43
2022-10-09T05:29:03.423Z,5.47
2022-10-09T05:31:35.499Z,9.90
2022-10-09T05:34:09.294Z,6.53
2022-10-09T05:36:40.573Z,3.63
2022-10-09T05:39:11.634Z,4.85
2022-10-09T05:41:43.034Z,6.18
2022-10-09T05:44:14.910Z,3.95
2022-10-09T05:46:45.761Z,6.32
2022-10-09T05:49:19.565Z,6.50
2022-10-09T05:51:50.518Z,4.95
2022-10-09T05:54:22.190Z,4.88
2022-10-09T05:56:53.579Z,9.48
2022-10-09T05:59:24.541Z,5.82
2022-10-09T06:01:56.123Z,4.82
2022-10-09T06:04:30.112Z,6.40
2022-10-09T06:07:01.446Z,4.53
2022-10-09T06:09:32.973Z,6.68
2022-10-09T06:12:04.626Z,5.35
2022-10-09T06:14:36.840Z,3.80
2022-10-09T06:17:08.416Z,8.50
2022-10-09T06:19:42.018Z,3.70
2022-10-09T06:22:13.161Z,8.25
2022-10-09T06:24:44.269Z,5.70
2022-10-09T06:27:15.484Z,6.10
2022-10-09T06:29:46.828Z,4.30
2022-10-09T06:32:17.964Z,7.20
2022-10-09T06:34:52.313Z,5.32
2022-10-09T06:37:23.223Z,7.20
2022-10-09T06:39:54.092Z,5.82
2022-10-09T06:42:25.063Z,4.68
2022-10-09T06:45:01.175Z,3.75
2022-10-09T06:47:32.252Z,6.05
2022-10-09T06:50:06.102Z,12.65
2022-10-09T06:52:37.036Z,6.13
2022-10-09T06:55:09.075Z,8.02
2022-10-09T06:57:40.296Z,5.47
2022-10-09T07:00:12.894Z,6.50
2022-10-09T07:02:44.275Z,5.65
2022-10-09T07:05:18.814Z,3.97
2022-10-09T07:07:49.675Z,5.75
2022-10-09T07:10:25.112Z,6.10
2022-10-09T07:12:56.311Z,5.60
2022-10-09T07:15:30.333Z,5.28
2022-10-09T07:18:01.571Z,5.57
2022-10-09T07:20:38.992Z,4.63
2022-10-09T07:23:09.834Z,4.38
2022-10-09T07:25:41.754Z,7.75
2022-10-09T07:28:12.680Z,6.97
2022-10-09T07:30:44.549Z,6.82
2022-10-09T07:33:15.737Z,7.05
2022-10-09T07:35:56.606Z,8.55
2022-10-09T07:38:28.635Z,6.32
2022-10-09T07:41:04.455Z,5.95
2022-10-09T07:43:35.657Z,6.28
2022-10-09T07:46:08.585Z,7.15
2022-10-09T07:48:39.674Z,4.80
2022-10-09T07:51:16.973Z,5.95
2022-10-09T07:53:48.257Z,7.20
2022-10-09T07:56:20.550Z,5.20
2022-10-09T07:58:53.173Z,5.18
2022-10-09T08:01:25.626Z,3.40
2022-10-09T08:03:57.429Z,6.60
2022-10-09T08:06:31.979Z,6.70
2022-10-09T08:09:05.421Z,5.22
2022-10-09T08:11:36.464Z,14.95
2022-10-09T08:14:07.485Z,5.72
2022-10-09T08:16:38.302Z,7.40
2022-10-09T08:19:09.220Z,5.50
2022-10-09T08:21:42.734Z,5.57
2022-10-09T08:24:15.057Z,4.00
2022-10-09T08:26:45.990Z,5.38
2022-10-09T08:29:18.833Z,5.22
2022-10-09T08:31:49.896Z,7.90
2022-10-09T08:34:21.558Z,5.40
2022-10-09T08:36:55.798Z,6.53
2022-10-09T08:39:31.110Z,4.03
2022-10-09T08:42:04.534Z,9.15
2022-10-09T08:44:41.869Z,7.07
2022-10-09T08:47:20.611Z,6.57
2022-10-09T08:49:58.779Z,9.73
2022-10-09T08:52:40.704Z,8.68
2022-10-09T08:55:23.310Z,7.68
2022-10-09T08:57:57.178Z,7.97
2022-10-09T09:00:31.337Z,5.88
2022-10-09T09:03:32.047Z,7.78
2022-10-09T09:06:09.295Z,4.30
2022-10-09T09:08:51.005Z,4.90
2022-10-09T09:11:31.673Z,6.03
2022-10-09T09:14:14.554Z,4.03
2022-10-09T09:16:53.118Z,5.93
2022-10-09T09:19:39.866Z,7.53
2022-10-09T09:22:15.659Z,3.95
2022-10-09T09:24:54.516Z,5.03
2022-10-09T09:27:30.644Z,7.10
2022-10-09T09:30:07.225Z,4.93
2022-10-09T09:32:38.533Z,8.57
2022-10-09T09:35:19.212Z,7.63
2022-10-09T09:37:50.418Z,4.47
2022-10-09T09:40:46.623Z,5.65
2022-10-09T09:43:22.054Z,4.40
2022-10-09T09:45:56.790Z,8.27
2022-10-09T09:48:38.180Z,7.40
2022-10-09T09:51:28.132Z,7.05
2022-10-09T09:54:04.325Z,6.88
2022-10-09T09:59:37.214Z,8.98
2022-10-09T10:02:16.156Z,5.70
2022-10-09T10:04:56.952Z,6.47
2022-10-09T10:07:32.730Z,5.63
2022-10-09T10:10:09.329Z,5.07
2022-10-09T10:12:49.130Z,9.48
2022-10-09T10:15:23.684Z,6.38
2022-10-09T10:18:01.707Z,7.28
2022-10-09T10:20:35.352Z,6.28
2022-10-09T10:23:07.105Z,7.35
2022-10-09T10:25:38.713Z,7.32
2022-10-09T10:28:21.944Z,6.35
2022-10-09T10:30:54.595Z,5.88
2022-10-09T10:33:30.307Z,7.40
2022-10-09T10:36:02.266Z,8.38
2022-10-09T10:38:38.654Z,5.72
2022-10-09T10:41:18.052Z,4.57
2022-10-09T10:43:54.423Z,6.55
2022-10-09T10:46:29.354Z,5.05
2022-10-09T10:49:03.613Z,5.30
2022-10-09T10:51:54.122Z,5.97
2022-10-09T10:54:39.296Z,4.80
2022-10-09T10:57:18.116Z,4.43
2022-10-09T11:00:04.316Z,4.65
2022-10-09T11:03:05.383Z,5.97
2022-10-09T11:05:50.541Z,2.22
2022-10-09T11:08:43.688Z,7.95
2022-10-09T11:11:22.257Z,6.40
2022-10-09T11:14:06.946Z,4.38
2022-10-09T11:16:52.794Z,4.43
2022-10-09T11:19:50.965Z,3.33
2022-10-09T11:22:43.079Z,5.75
2022-10-09T11:25:33.439Z,5.82
2022-10-09T11:28:08.034Z,6.25
2022-10-09T11:30:46.059Z,4.75
2022-10-09T11:33:30.997Z,3.20
2022-10-09T11:36:05.569Z,5.88
2022-10-09T11:38:40.828Z,4.85
2022-10-09T11:41:12.571Z,3.72
2022-10-09T11:44:04.648Z,5.80
2022-10-09T11:46:45.309Z,5.72
2022-10-09T11:49:26.402Z,4.63
2022-10-09T11:52:03.234Z,5.45
2022-10-09T11:57:12.953Z,5.22
2022-10-09T11:59:46.563Z,5.85
2022-10-09T12:02:29.278Z,5.15
2022-10-09T12:05:03.755Z,6.43
2022-10-09T12:10:12.789Z,4.55
2022-10-09T12:12:45.738Z,4.35
2022-10-09T12:15:28.850Z,4.22
2022-10-09T12:18:00.023Z,3.42
2022-10-09T12:20:35.043Z,6.63
2022-10-09T12:23:28.444Z,3.97
2022-10-09T12:26:01.121Z,4.30
2022-10-09T12:28:41.719Z,5.07
2022-10-09T12:31:24.708Z,5.88
2022-10-09T12:34:00.593Z,4.15
2022-10-09T12:36:35.217Z,6.25
2022-10-09T12:39:23.057Z,7.00
2022-10-09T12:41:59.881Z,16.67
2022-10-09T12:44:34.768Z,7.72
2022-10-09T12:47:09.614Z,5.20
2022-10-09T12:49:40.775Z,7.78
2022-10-09T12:52:19.994Z,5.07
2022-10-09T12:54:51.113Z,6.15
2022-10-09T12:57:24.097Z,6.20
2022-10-09T12:59:59.819Z,11.93
2022-10-09T13:02:32.278Z,10.07
2022-10-09T13:05:04.950Z,6.82
2022-10-09T13:07:39.084Z,8.85
2022-10-09T13:10:19.652Z,4.55
2022-10-09T13:12:56.274Z,8.35
2022-10-09T13:15:34.331Z,7.80
2022-10-09T13:18:16.143Z,8.43
2022-10-09T13:20:47.383Z,9.23
2022-10-09T13:23:33.586Z,6.10
2022-10-09T13:26:06.647Z,2.67
2022-10-09T13:28:38.056Z,6.22
2022-10-09T13:31:11.274Z,4.82
2022-10-09T13:33:42.518Z,4.28
2022-10-09T13:36:15.402Z,4.05
2022-10-09T13:38:50.526Z,7.43
2022-10-09T13:41:24.151Z,4.78
2022-10-09T13:43:56.792Z,6.95
2022-10-09T13:46:28.090Z,8.63
2022-10-09T13:48:59.493Z,3.30
2022-10-09T13:51:32.280Z,9.23
2022-10-09T13:54:06.065Z,6.63
2022-10-09T13:56:37.165Z,6.85
2022-10-09T13:59:08.041Z,7.82
2022-10-09T14:01:39.273Z,4.30
2022-10-09T14:04:10.362Z,4.60
2022-10-09T14:06:41.503Z,11.07
2022-10-09T14:09:15.001Z,3.33
2022-10-09T14:11:46.188Z,5.75
2022-10-09T14:14:17.110Z,3.97
2022-10-09T14:16:47.887Z,7.10
2022-10-09T14:19:18.985Z,3.38
2022-10-09T14:21:50.631Z,3.58
2022-10-09T14:24:24.653Z,4.70
2022-10-09T14:26:55.519Z,6.15
2022-10-09T14:29:26.294Z,4.68
2022-10-09T14:31:57.086Z,3.10
2022-10-09T14:34:27.868Z,4.68
2022-10-09T14:36:58.689Z,4.60
2022-10-09T14:39:32.729Z,6.47
2022-10-09T14:42:03.936Z,5.22
2022-10-09T14:44:35.345Z,6.22
2022-10-09T14:47:06.488Z,3.90
2022-10-09T14:49:37.869Z,7.20
2022-10-09T14:52:08.729Z,4.90
2022-10-09T14:54:42.398Z,5.03
2022-10-09T14:57:13.692Z,4.05
2022-10-09T14:59:44.448Z,8.68
2022-10-09T15:02:17.884Z,7.68
2022-10-09T15:04:48.650Z,2.92
2022-10-09T15:07:19.461Z,2.95
2022-10-09T15:09:55.040Z,4.18
2022-10-09T15:12:25.847Z,5.47
2022-10-09T15:14:57.179Z,11.60
2022-10-09T15:17:28.312Z,8.18
2022-10-09T15:19:59.461Z,6.80
2022-10-09T15:22:30.334Z,7.75
2022-10-09T15:25:03.872Z,5.80
2022-10-09T15:27:34.968Z,9.00
2022-10-09T15:30:06.698Z,6.50
2022-10-09T15:32:37.418Z,5.72
2022-10-09T15:35:09.633Z,8.07
2022-10-09T15:37:41.012Z,6.15
2022-10-09T15:40:17.847Z,5.22
2022-10-09T15:42:50.138Z,4.88
2022-10-09T15:45:21.678Z,7.60
2022-10-09T15:47:55.391Z,7.40
2022-10-09T15:50:27.134Z,14.90
2022-10-09T15:53:00.872Z,6.78
2022-10-09T15:55:44.395Z,8.05
2022-10-09T15:58:16.482Z,6.45
2022-10-09T16:00:50.465Z,7.32
2022-10-09T16:03:22.170Z,6.35
2022-10-09T16:05:55.370Z,6.28
2022-10-09T16:08:26.584Z,7.90
2022-10-09T16:11:00.688Z,6.78
2022-10-09T16:13:31.600Z,8.80
2022-10-09T16:16:02.570Z,7.40
2022-10-09T16:18:33.511Z,8.73
2022-10-09T16:21:08.403Z,7.30
2022-10-09T16:23:40.453Z,6.03
2022-10-09T16:26:15.813Z,7.15
2022-10-09T16:28:47.502Z,10.70
2022-10-09T16:31:23.204Z,5.22
2022-10-09T16:33:54.496Z,8.35
2022-10-09T16:36:25.533Z,5.63
2022-10-09T16:38:56.721Z,4.97
2022-10-09T16:41:30.432Z,2.90
2022-10-09T16:44:03.072Z,4.50
2022-10-09T16:46:36.121Z,7.88
2022-10-09T16:49:07.582Z,3.05
2022-10-09T16:51:39.567Z,5.10
2022-10-09T16:54:10.762Z,4.28
2022-10-09T16:56:44.803Z,6.63
2022-10-09T16:59:16.735Z,4.97
2022-10-09T17:01:49.798Z,2.88
2022-10-09T17:04:21.037Z,5.65
2022-10-09T17:06:53.001Z,3.60
2022-10-09T17:09:24.098Z,5.32
2022-10-09T17:11:58.190Z,4.32
2022-10-09T17:14:29.342Z,5.47
2022-10-09T17:17:00.719Z,4.75
2022-10-09T17:19:33.224Z,4.90
2022-10-09T17:22:05.360Z,7.63
2022-10-09T17:24:36.434Z,6.28
2022-10-09T17:27:10.429Z,7.65
2022-10-09T17:29:41.664Z,6.85
2022-10-09T17:32:12.962Z,7.20
2022-10-09T17:34:46.173Z,5.45
2022-10-09T17:37:17.538Z,5.72
2022-10-09T17:39:52.278Z,6.03
2022-10-09T17:42:26.904Z,8.85
2022-10-09T17:44:58.465Z,8.00
2022-10-09T17:47:29.575Z,9.60
2022-10-09T17:50:01.109Z,11.15
2022-10-09T17:52:32.339Z,5.53
2022-10-09T17:55:03.558Z,6.75
2022-10-09T17:57:38.082Z,7.72
2022-10-09T18:00:13.256Z,10.75
2022-10-09T18:02:44.619Z,7.28
2022-10-09T18:05:18.709Z,8.15
2022-10-09T18:07:50.278Z,5.55
2022-10-09T18:10:24.004Z,7.43
2022-10-09T18:12:57.904Z,6.63
2022-10-09T18:15:29.605Z,5.35
2022-10-09T18:18:01.645Z,8.45
2022-10-09T18:20:33.532Z,9.02
2022-10-09T18:23:05.248Z,7.13
2022-10-09T18:25:38.395Z,6.85
2022-10-09T18:28:13.628Z,9.85
2022-10-09T18:30:46.896Z,9.07
2022-10-09T18:33:19.084Z,14.02
2022-10-09T18:35:51.129Z,11.40
2022-10-09T18:38:22.984Z,15.73
2022-10-09T18:40:54.302Z,15.85
2022-10-09T18:43:29.661Z,27.98
2022-10-09T18:46:02.014Z,21.88
2022-10-09T18:48:35.205Z,14.43
2022-10-09T18:51:07.361Z,20.17
2022-10-09T18:53:40.195Z,17.83
2022-10-09T18:56:11.999Z,21.42
2022-10-09T18:58:48.774Z,16.30
2022-10-09T19:01:20.718Z,19.08
2022-10-09T19:03:51.873Z,18.05
2022-10-09T19:06:23.926Z,18.98
2022-10-09T19:08:58.271Z,15.10
2022-10-09T19:11:29.609Z,19.60
2022-10-09T19:14:04.332Z,19.13
2022-10-09T19:16:37.110Z,10.13
2022-10-09T19:19:08.393Z,11.90
2022-10-09T19:21:44.176Z,11.18
2022-10-09T19:24:15.889Z,9.05
2022-10-09T19:26:47.312Z,11.85
2022-10-09T19:29:21.327Z,11.50
2022-10-09T19:31:52.469Z,11.52
2022-10-09T19:34:23.518Z,16.55
2022-10-09T19:36:54.779Z,16.58
2022-10-09T19:39:26.521Z,15.20
2022-10-09T19:41:58.385Z,10.27
2022-10-09T19:44:32.812Z,9.20
2022-10-09T19:47:07.305Z,13.13
2022-10-09T19:49:39.932Z,9.52
2022-10-09T19:52:11.627Z,11.27
2022-10-09T19:54:43.288Z,9.95
2022-10-09T19:57:15.977Z,9.00
2022-10-09T19:59:54.612Z,6.32
2022-10-09T20:02:27.341Z,9.27
2022-10-09T20:05:01.534Z,8.25
2022-10-09T20:07:33.062Z,10.45
2022-10-09T20:10:05.875Z,8.02
2022-10-09T20:12:41.464Z,8.68
2022-10-09T20:15:15.786Z,9.43
2022-10-09T20:17:47.030Z,9.30
2022-10-09T20:20:19.208Z,8.73
2022-10-09T20:22:50.586Z,7.10
2022-10-09T20:25:22.638Z,6.70
2022-10-09T20:27:54.286Z,7.40
2022-10-09T20:30:28.104Z,7.60
2022-10-09T20:32:59.766Z,7.32
2022-10-09T20:35:31.490Z,9.35
2022-10-09T20:38:03.426Z,9.23
2022-10-09T20:40:36.565Z,10.07
2022-10-09T20:43:08.564Z,6.90
2022-10-09T20:45:45.781Z,10.38
2022-10-09T20:48:16.834Z,9.50
2022-10-09T20:50:47.787Z,7.57
2022-10-09T20:53:19.016Z,8.68
2022-10-09T20:55:50.035Z,8.32
2022-10-09T20:58:21.088Z,8.18
2022-10-09T21:00:54.734Z,8.63
2022-10-09T21:03:26.085Z,5.38
2022-10-09T21:05:57.293Z,8.60
2022-10-09T21:08:28.940Z,11.68
2022-10-09T21:11:01.074Z,10.82
2022-10-09T21:13:32.133Z,7.32
2022-10-09T21:16:09.227Z,9.82
2022-10-09T21:18:41.356Z,6.70
2022-10-09T21:21:14.517Z,11.35
2022-10-09T21:23:46.334Z,11.13
2022-10-09T21:26:19.570Z,12.45
2022-10-09T21:28:53.338Z,11.90
2022-10-09T21:31:32.520Z,12.30
2022-10-09T21:34:04.357Z,11.40
2022-10-09T21:36:51.066Z,9.90
2022-10-09T21:39:32.053Z,10.43
2022-10-09T21:42:03.069Z,8.73
2022-10-09T21:44:34.606Z,12.68
2022-10-09T21:47:08.525Z,11.90
2022-10-09T21:49:39.379Z,11.43
2022-10-09T21:52:10.531Z,9.90
2022-10-09T21:54:41.464Z,9.60
2022-10-09T21:57:12.709Z,6.65
2022-10-09T21:59:43.639Z,6.60
2022-10-09T22:02:17.266Z,7.03
2022-10-09T22:04:48.549Z,10.13
2022-10-09T22:07:19.773Z,8.25
2022-10-09T22:09:50.632Z,8.15
2022-10-09T22:12:23.260Z,6.93
2022-10-09T22:14:54.503Z,8.88
2022-10-09T22:17:28.068Z,6.40
2022-10-09T22:19:59.291Z,9.40
2022-10-09T22:22:30.610Z,5.32
2022-10-09T22:25:02.130Z,7.45
2022-10-09T22:27:33.435Z,10.52
2022-10-09T22:30:04.768Z,9.27
2022-10-09T22:32:39.964Z,9.32
2022-10-09T22:35:11.700Z,5.88
2022-10-09T22:37:42.991Z,8.85
2022-10-09T22:40:14.618Z,9.70
2022-10-09T22:42:46.085Z,7.70
2022-10-09T22:45:17.755Z,5.57
2022-10-09T22:47:52.989Z,6.05
2022-10-09T22:50:23.935Z,5.70
2022-10-09T22:52:54.787Z,4.82
2022-10-09T22:55:26.699Z,6.05
2022-10-09T22:57:58.035Z,8.63
2022-10-09T23:00:29.552Z,6.43
2022-10-09T23:03:03.088Z,11.05
2022-10-09T23:05:33.995Z,7.35
2022-10-09T23:08:05.276Z,19.15
2022-10-09T23:10:39.902Z,7.68
2022-10-09T23:13:10.776Z,10.43
2022-10-09T23:15:42.032Z,5.95
2022-10-09T23:18:15.769Z,8.70
2022-10-09T23:20:46.886Z,9.00
2022-10-09T23:23:17.997Z,5.75
2022-10-09T23:25:49.007Z,9.45
2022-10-09T23:28:20.285Z,6.85
2022-10-09T23:30:52.283Z,6.38
2022-10-09T23:33:26.075Z,7.13
2022-10-09T23:35:57.054Z,11.32
2022-10-09T23:38:28.625Z,7.70
2022-10-09T23:41:01.107Z,8.60
2022-10-09T23:43:33.890Z,9.38
2022-10-09T23:46:07.483Z,7.97
2022-10-09T23:48:41.344Z,9.20
2022-10-09T23:51:13.139Z,6.53
2022-10-09T23:53:44.938Z,11.10
2022-10-09T23:56:21.505Z,7.90
2022-10-09T23:58:53.184Z,5.80
